Time;durP1;ratioP1;P1;durP2;ratioP2;P2;SDS_P1;SDS_P2;PMS_P1;PMS_P2;Temp;Humidity;BMP_temperature;BMP_pressure;BME280_temperature;BME280_humidity;BME280_pressure;Samples;Min_cycle;Max_cycle;Signal;HPM_P1;HPM_P2
2022/06/28 00:01:38;;;;;;;0.82;0.82;;;18.80;73.20;;;;;;5040933;28;20408;-70
2022/06/28 00:04:03;;;;;;;2.67;0.93;;;18.80;73.20;;;;;;5040826;28;20123;-71
2022/06/28 00:06:29;;;;;;;1.52;0.98;;;18.70;73.20;;;;;;5017578;28;20055;-73
2022/06/28 00:08:54;;;;;;;0.98;0.90;;;18.70;73.20;;;;;;5040590;28;20059;-71
2022/06/28 00:11:20;;;;;;;1.13;1.00;;;18.70;73.20;;;;;;5029747;28;20041;-73
2022/06/28 00:13:45;;;;;;;2.63;0.90;;;18.60;73.20;;;;;;5040839;28;20037;-71
2022/06/28 00:16:15;;;;;;;1.70;0.98;;;18.60;73.30;;;;;;5058014;28;20059;-71
2022/06/28 00:18:40;;;;;;;2.17;0.90;;;18.60;73.30;;;;;;5037572;28;20037;-71
2022/06/28 00:21:06;;;;;;;2.17;1.35;;;18.60;73.20;;;;;;5033766;28;20087;-71
2022/06/28 00:23:32;;;;;;;2.05;1.05;;;18.60;73.20;;;;;;5025274;28;20064;-71
2022/06/28 00:25:58;;;;;;;1.10;1.00;;;18.60;73.20;;;;;;5028259;28;20053;-71
2022/06/28 00:28:24;;;;;;;1.20;1.10;;;18.50;73.00;;;;;;5038927;28;20043;-71
2022/06/28 00:30:49;;;;;;;1.10;1.00;;;18.50;73.20;;;;;;5040261;28;20041;-71
2022/06/28 00:33:15;;;;;;;3.50;1.00;;;18.40;74.20;;;;;;5040198;28;20174;-71
2022/06/28 00:35:40;;;;;;;0.93;0.75;;;18.30;73.50;;;;;;5024783;28;20116;-71
2022/06/28 00:38:06;;;;;;;2.05;1.50;;;18.20;73.70;;;;;;5024046;28;20497;-71
2022/06/28 00:40:32;;;;;;;0.70;0.70;;;18.20;73.70;;;;;;5019468;28;20063;-72
2022/06/28 00:42:57;;;;;;;3.38;0.90;;;18.20;73.80;;;;;;5025750;28;20052;-70
2022/06/28 00:45:23;;;;;;;2.50;0.90;;;18.20;73.90;;;;;;5041874;28;20045;-72
2022/06/28 00:47:49;;;;;;;1.27;1.00;;;18.20;73.90;;;;;;5040734;28;20041;-71
2022/06/28 00:50:14;;;;;;;2.97;0.93;;;18.20;73.90;;;;;;5015938;28;20037;-72
2022/06/28 00:53:03;;;;;;;2.47;1.20;;;18.20;74.00;;;;;;5055797;28;20049;-71
2022/06/28 00:55:28;;;;;;;1.20;1.10;;;18.10;74.20;;;;;;5039661;28;20062;-71
2022/06/28 00:57:54;;;;;;;2.08;1.00;;;18.10;73.90;;;;;;5026648;28;20040;-71
2022/06/28 01:00:19;;;;;;;2.78;1.00;;;18.00;74.00;;;;;;5019934;28;20029;-72
2022/06/28 01:02:45;;;;;;;2.50;0.95;;;18.00;74.20;;;;;;5032456;28;20127;-72
2022/06/28 01:05:10;;;;;;;5.30;0.90;;;17.90;74.20;;;;;;5020801;28;20033;-72
2022/06/28 01:07:36;;;;;;;0.95;0.80;;;17.90;74.30;;;;;;5017832;28;20435;-70
2022/06/28 01:10:01;;;;;;;2.22;0.85;;;17.80;74.30;;;;;;5030696;28;20024;-73
2022/06/28 01:12:27;;;;;;;1.40;1.00;;;17.80;74.40;;;;;;5036972;28;20033;-71
2022/06/28 01:14:52;;;;;;;3.13;0.80;;;17.80;74.40;;;;;;5016578;28;20052;-72
2022/06/28 01:17:18;;;;;;;0.80;0.80;;;17.70;74.30;;;;;;5024656;28;20036;-71
2022/06/28 01:19:43;;;;;;;1.10;0.73;;;17.70;74.50;;;;;;5028912;28;20781;-72
2022/06/28 01:22:10;;;;;;;3.10;0.85;;;17.60;75.40;;;;;;5013511;28;20041;-72
2022/06/28 01:24:35;;;;;;;1.00;0.85;;;17.60;74.70;;;;;;5011376;28;20033;-72
2022/06/28 01:27:01;;;;;;;2.17;1.00;;;17.60;75.40;;;;;;5048620;28;20547;-71
2022/06/28 01:29:27;;;;;;;1.10;1.00;;;17.50;74.60;;;;;;5021997;28;20040;-73
2022/06/28 01:31:52;;;;;;;1.73;0.80;;;17.50;74.60;;;;;;5012002;28;20045;-71
2022/06/28 01:34:18;;;;;;;2.00;0.80;;;17.50;74.60;;;;;;5019714;28;20034;-73
2022/06/28 01:36:43;;;;;;;2.50;1.00;;;17.40;74.50;;;;;;5035756;28;20037;-71
2022/06/28 01:39:09;;;;;;;4.32;1.20;;;17.30;74.60;;;;;;5029651;28;20082;-71
2022/06/28 01:41:34;;;;;;;4.22;1.73;;;17.20;74.80;;;;;;5025401;28;20087;-70
2022/06/28 01:44:02;;;;;;;1.85;0.98;;;17.10;74.90;;;;;;4986420;28;20048;-70
2022/06/28 01:46:27;;;;;;;2.53;1.10;;;17.00;75.20;;;;;;4985566;28;20500;-71
2022/06/28 01:48:54;;;;;;;2.55;0.98;;;16.90;75.20;;;;;;5010789;28;20116;-71
2022/06/28 01:51:19;;;;;;;6.57;1.00;;;16.90;75.50;;;;;;5017353;28;20501;-71
2022/06/28 01:53:45;;;;;;;3.53;0.95;;;16.80;75.50;;;;;;5018281;28;20060;-71
2022/06/28 01:56:10;;;;;;;1.08;0.80;;;16.80;75.50;;;;;;5016829;28;20500;-71
2022/06/28 01:58:36;;;;;;;3.40;0.77;;;16.70;75.50;;;;;;5036746;28;20045;-71
2022/06/28 02:01:01;;;;;;;1.40;0.80;;;16.70;75.70;;;;;;5016844;28;20401;-71
2022/06/28 02:03:27;;;;;;;1.13;0.90;;;16.70;75.80;;;;;;5018334;28;20909;-72
2022/06/28 02:05:52;;;;;;;3.42;0.88;;;16.60;75.80;;;;;;5034132;28;20654;-71
2022/06/28 02:08:18;;;;;;;4.85;1.73;;;16.60;75.90;;;;;;5017135;28;20037;-70
2022/06/28 02:10:43;;;;;;;3.50;0.85;;;16.50;76.00;;;;;;5025502;28;20041;-71
2022/06/28 02:13:09;;;;;;;1.50;0.93;;;16.60;76.00;;;;;;5031043;28;20032;-71
2022/06/28 02:15:34;;;;;;;2.95;0.80;;;16.50;76.00;;;;;;5015700;28;20040;-73
2022/06/28 02:18:00;;;;;;;4.32;1.00;;;16.40;76.00;;;;;;5030514;28;20540;-71
2022/06/28 02:20:26;;;;;;;2.70;1.00;;;16.40;76.00;;;;;;5002815;28;20076;-71
2022/06/28 02:22:51;;;;;;;2.40;0.88;;;16.30;76.10;;;;;;5019944;28;20037;-71
2022/06/28 02:25:17;;;;;;;2.65;0.80;;;16.20;76.20;;;;;;5035654;28;20116;-71
2022/06/28 02:27:43;;;;;;;3.78;0.73;;;16.20;76.30;;;;;;5017436;28;20040;-70
2022/06/28 02:30:10;;;;;;;1.77;0.90;;;16.20;76.40;;;;;;5037484;28;20698;-71
2022/06/28 02:32:35;;;;;;;2.30;0.90;;;16.10;76.30;;;;;;5025746;28;20064;-71
2022/06/28 02:40:29;;;;;;;1.70;1.00;;;15.90;76.80;;;;;;5010057;28;20043;-73
2022/06/28 02:42:56;;;;;;;0.80;0.80;;;15.90;76.80;;;;;;5047625;28;20048;-71
2022/06/28 02:45:22;;;;;;;2.78;0.85;;;15.80;76.70;;;;;;5035039;28;20156;-71
2022/06/28 02:47:48;;;;;;;1.15;1.02;;;15.80;76.70;;;;;;5031035;28;20102;-70
2022/06/28 02:50:14;;;;;;;1.75;1.08;;;15.70;76.70;;;;;;5035146;28;20615;-71
2022/06/28 02:52:39;;;;;;;1.33;0.77;;;15.70;76.80;;;;;;5022725;28;20138;-71
2022/06/28 02:55:06;;;;;;;4.10;1.00;;;15.70;76.90;;;;;;5019854;28;20590;-71
2022/06/28 02:57:32;;;;;;;4.63;0.75;;;15.70;77.00;;;;;;5035956;28;20064;-72
2022/06/28 02:59:57;;;;;;;4.95;0.93;;;15.70;76.90;;;;;;5017444;28;20037;-70
2022/06/28 03:02:23;;;;;;;2.05;0.70;;;15.60;76.80;;;;;;5010508;28;20082;-71
2022/06/28 03:04:49;;;;;;;3.25;0.90;;;15.50;76.80;;;;;;5035076;28;20043;-70
2022/06/28 03:07:14;;;;;;;2.05;0.90;;;15.40;76.70;;;;;;5015080;28;20029;-71
2022/06/28 03:09:40;;;;;;;3.90;1.25;;;15.40;76.90;;;;;;5051497;28;20390;-70
2022/06/28 03:12:06;;;;;;;4.07;0.90;;;15.30;76.90;;;;;;5033408;28;20653;-72
2022/06/28 03:14:32;;;;;;;6.32;1.10;;;15.30;76.90;;;;;;5031894;28;20037;-70
2022/06/28 03:16:58;;;;;;;4.00;1.00;;;15.20;77.00;;;;;;5010489;28;20563;-71
2022/06/28 03:19:23;;;;;;;6.07;1.00;;;15.20;77.10;;;;;;5033116;28;20033;-71
2022/06/28 03:21:49;;;;;;;7.80;1.13;;;15.10;77.10;;;;;;5028885;28;20491;-71
2022/06/28 03:24:14;;;;;;;2.30;0.77;;;15.10;77.20;;;;;;5026673;28;20032;-70
2022/06/28 03:26:40;;;;;;;3.90;0.90;;;15.10;77.20;;;;;;5035557;28;20045;-70
2022/06/28 03:29:05;;;;;;;1.13;0.70;;;15.10;77.30;;;;;;5052110;28;20033;-71
2022/06/28 03:31:31;;;;;;;1.30;0.95;;;15.10;77.30;;;;;;5017467;28;20086;-70
2022/06/28 03:33:57;;;;;;;2.35;0.90;;;15.10;77.30;;;;;;5033289;28;20042;-70
2022/06/28 03:36:22;;;;;;;1.77;0.80;;;15.10;77.30;;;;;;5033998;28;20048;-70
2022/06/28 03:38:48;;;;;;;1.77;0.88;;;15.00;77.70;;;;;;5033628;28;20052;-72
2022/06/28 03:41:22;;;;;;;2.15;0.80;;;15.00;77.30;;;;;;5015686;28;20036;-70
2022/06/28 03:43:51;;;;;;;2.00;0.90;;;15.00;77.40;;;;;;5035515;28;20692;-71
2022/06/28 03:46:16;;;;;;;1.73;0.70;;;15.00;77.50;;;;;;5017329;28;20552;-71
2022/06/28 03:48:43;;;;;;;3.17;0.88;;;15.00;77.50;;;;;;5026385;28;20059;-70
2022/06/28 03:51:08;;;;;;;4.80;1.08;;;15.00;77.50;;;;;;5015458;28;20497;-72
2022/06/28 03:53:34;;;;;;;2.08;1.00;;;15.00;77.50;;;;;;5016576;28;20038;-71
2022/06/28 03:55:59;;;;;;;3.80;1.00;;;14.90;77.50;;;;;;5033328;28;20040;-72
2022/06/28 03:58:25;;;;;;;4.93;1.10;;;14.90;77.50;;;;;;5034705;28;20064;-70
2022/06/28 04:00:50;;;;;;;3.80;0.93;;;14.80;77.50;;;;;;5034641;28;20068;-71
2022/06/28 04:03:16;;;;;;;3.80;0.70;;;14.70;77.70;;;;;;5032196;28;20032;-70
2022/06/28 04:05:41;;;;;;;2.95;0.80;;;14.80;78.00;;;;;;5017063;28;20037;-72
2022/06/28 04:08:08;;;;;;;4.85;1.25;;;14.70;77.90;;;;;;5031800;28;20057;-70
2022/06/28 04:10:34;;;;;;;9.48;1.00;;;14.70;78.10;;;;;;5013147;28;20047;-71
2022/06/28 04:12:59;;;;;;;1.60;0.85;;;14.70;78.30;;;;;;5033348;28;20029;-70
2022/06/28 04:15:25;;;;;;;2.40;0.88;;;14.70;78.40;;;;;;5032124;28;20489;-72
2022/06/28 04:17:50;;;;;;;4.82;1.05;;;14.70;78.40;;;;;;5029484;28;20044;-71
2022/06/28 04:20:17;;;;;;;2.38;0.88;;;14.70;78.50;;;;;;5038293;28;20051;-70
2022/06/28 04:22:43;;;;;;;3.28;0.98;;;14.70;78.40;;;;;;5034027;28;20148;-69
2022/06/28 04:25:08;;;;;;;3.80;0.98;;;14.70;78.50;;;;;;5028991;28;20034;-69
2022/06/28 04:27:34;;;;;;;2.50;0.70;;;14.70;78.70;;;;;;5022013;28;20109;-68
2022/06/28 04:29:59;;;;;;;4.43;1.02;;;14.70;78.70;;;;;;5033363;28;20037;-69
2022/06/28 04:32:25;;;;;;;4.22;0.80;;;14.80;78.80;;;;;;5023456;28;20464;-70
2022/06/28 04:34:51;;;;;;;6.22;1.20;;;14.80;78.70;;;;;;5031639;28;20034;-69
2022/06/28 04:37:16;;;;;;;2.00;1.08;;;14.80;78.80;;;;;;5027859;28;20155;-69
2022/06/28 04:39:42;;;;;;;3.92;1.23;;;14.80;78.90;;;;;;5019413;28;20646;-68
2022/06/28 04:42:07;;;;;;;2.80;0.90;;;14.80;79.00;;;;;;5032827;28;20459;-68
2022/06/28 04:44:33;;;;;;;1.42;0.90;;;14.80;79.00;;;;;;5015804;28;20041;-69
2022/06/28 04:47:00;;;;;;;7.88;1.38;;;14.80;79.00;;;;;;4998385;28;20532;-68
2022/06/28 04:49:26;;;;;;;2.88;1.10;;;14.80;79.00;;;;;;4995891;28;20033;-69
2022/06/28 04:51:51;;;;;;;3.47;1.02;;;14.90;79.30;;;;;;5002075;28;20537;-69
2022/06/28 04:54:17;;;;;;;1.92;1.13;;;14.90;79.20;;;;;;5008318;28;20045;-67
2022/06/28 04:56:42;;;;;;;5.63;1.45;;;14.90;79.20;;;;;;5038835;28;20099;-69
2022/06/28 04:59:08;;;;;;;5.82;1.20;;;15.00;79.30;;;;;;5001456;28;20029;-69
2022/06/28 05:01:33;;;;;;;1.88;0.93;;;15.00;79.20;;;;;;5002322;28;20041;-71
2022/06/28 05:03:59;;;;;;;3.78;1.40;;;15.10;79.40;;;;;;5013304;28;20514;-71
2022/06/28 05:06:24;;;;;;;1.67;1.38;;;15.10;79.20;;;;;;5027051;28;20539;-71
2022/06/28 05:08:50;;;;;;;2.05;1.30;;;15.10;79.20;;;;;;5039806;28;20082;-71
2022/06/28 05:11:15;;;;;;;3.58;1.45;;;15.20;79.20;;;;;;5016598;28;20083;-71
2022/06/28 05:13:41;;;;;;;1.70;1.58;;;15.20;79.20;;;;;;5037046;28;20718;-71
2022/06/28 05:16:06;;;;;;;8.02;2.20;;;15.20;79.30;;;;;;5021660;28;20033;-71
2022/06/28 05:18:32;;;;;;;4.32;1.60;;;15.30;79.40;;;;;;4980740;28;20702;-73
2022/06/28 05:20:57;;;;;;;3.42;1.27;;;15.30;79.30;;;;;;5002139;28;20742;-72
2022/06/28 05:23:23;;;;;;;4.43;1.30;;;15.30;79.30;;;;;;5034433;28;20441;-73
2022/06/28 05:25:48;;;;;;;3.33;1.35;;;15.40;79.30;;;;;;5028542;28;20055;-71
2022/06/28 05:28:14;;;;;;;2.05;1.00;;;15.40;79.20;;;;;;4985959;28;20044;-72
2022/06/28 05:30:39;;;;;;;3.72;2.13;;;15.50;79.30;;;;;;5027550;28;20045;-73
2022/06/28 05:33:05;;;;;;;2.88;0.93;;;15.50;79.30;;;;;;5024594;28;20063;-71
2022/06/28 05:35:31;;;;;;;5.75;1.33;;;15.50;79.00;;;;;;5033086;28;20069;-71
2022/06/28 05:37:57;;;;;;;3.67;1.33;;;15.60;79.00;;;;;;5015482;28;22822;-72
2022/06/28 05:40:23;;;;;;;4.53;1.67;;;15.60;79.00;;;;;;4974592;28;20088;-72
2022/06/28 05:42:48;;;;;;;6.85;1.60;;;15.70;79.00;;;;;;5024748;28;20464;-72
2022/06/28 05:45:14;;;;;;;3.83;1.50;;;15.80;79.10;;;;;;5051315;28;20029;-73
2022/06/28 05:47:39;;;;;;;3.33;1.48;;;15.80;79.10;;;;;;5034533;28;20393;-71
2022/06/28 05:50:05;;;;;;;3.13;1.50;;;15.90;79.00;;;;;;5018806;28;20524;-71
2022/06/28 05:52:31;;;;;;;5.10;1.30;;;15.90;79.00;;;;;;5032191;28;21120;-72
2022/06/28 05:54:56;;;;;;;3.00;1.30;;;16.00;78.90;;;;;;5030511;28;20048;-72
2022/06/28 05:57:22;;;;;;;3.10;1.40;;;16.00;78.80;;;;;;5033862;28;20036;-72
2022/06/28 05:59:47;;;;;;;4.68;1.38;;;16.10;78.90;;;;;;5053807;28;20029;-71
2022/06/28 06:02:13;;;;;;;7.93;1.67;;;16.20;78.70;;;;;;5052542;28;20114;-72
2022/06/28 06:04:38;;;;;;;9.20;1.48;;;16.20;78.50;;;;;;5054010;28;20048;-71
2022/06/28 06:07:04;;;;;;;3.65;1.60;;;16.30;78.60;;;;;;5019988;28;20064;-72
2022/06/28 06:09:30;;;;;;;3.38;1.35;;;16.40;78.70;;;;;;5005177;28;20025;-73
2022/06/28 06:11:55;;;;;;;5.47;1.52;;;16.40;78.50;;;;;;5025977;28;20053;-71
2022/06/28 06:14:21;;;;;;;4.00;1.63;;;16.50;78.50;;;;;;5024293;28;20128;-71
2022/06/28 06:16:50;;;;;;;3.83;1.30;;;16.60;78.30;;;;;;5018288;28;20681;-72
2022/06/28 06:19:16;;;;;;;4.50;1.20;;;16.70;78.20;;;;;;5033068;28;20059;-71
2022/06/28 06:21:42;;;;;;;4.90;1.50;;;16.80;78.10;;;;;;5033010;28;20072;-72
2022/06/28 06:24:07;;;;;;;4.70;1.30;;;16.80;77.80;;;;;;5038218;28;20804;-71
2022/06/28 06:26:33;;;;;;;2.40;1.33;;;16.90;77.70;;;;;;5034544;28;20667;-71
2022/06/28 06:28:59;;;;;;;4.05;1.10;;;17.00;77.50;;;;;;5036791;28;20041;-71
2022/06/28 06:31:25;;;;;;;6.32;1.42;;;17.10;77.30;;;;;;5022773;28;20037;-70
2022/06/28 06:33:52;;;;;;;2.97;1.35;;;17.30;77.20;;;;;;5032507;28;20032;-71
2022/06/28 06:36:17;;;;;;;5.57;1.45;;;17.30;76.80;;;;;;5035836;28;20048;-72
2022/06/28 06:38:43;;;;;;;6.82;1.40;;;17.50;76.60;;;;;;5020517;28;20044;-72
2022/06/28 06:41:08;;;;;;;3.80;1.00;;;17.50;76.40;;;;;;5025675;28;20033;-71
2022/06/28 06:43:34;;;;;;;3.55;1.10;;;17.70;76.20;;;;;;5006040;28;20062;-71
2022/06/28 06:45:59;;;;;;;5.13;1.13;;;17.80;76.10;;;;;;5033856;28;20033;-71
2022/06/28 06:48:25;;;;;;;1.00;0.80;;;18.00;75.80;;;;;;5020553;28;20455;-71
2022/06/28 06:50:50;;;;;;;5.10;1.08;;;18.10;75.30;;;;;;5019307;28;20593;-72
2022/06/28 06:53:18;;;;;;;2.22;0.70;;;18.20;74.80;;;;;;5029064;28;20058;-71
2022/06/28 06:55:45;;;;;;;2.03;0.50;;;18.40;74.50;;;;;;5036582;28;20041;-71
2022/06/28 06:58:11;;;;;;;1.77;0.80;;;18.50;74.10;;;;;;5009187;28;20452;-71
2022/06/28 07:00:36;;;;;;;2.70;0.60;;;18.60;73.60;;;;;;5037173;28;20486;-70
2022/06/28 07:03:02;;;;;;;1.35;0.60;;;18.70;73.20;;;;;;5021448;28;20067;-71
2022/06/28 07:05:31;;;;;;;1.85;0.45;;;18.80;72.70;;;;;;5038379;28;20053;-71
2022/06/28 07:07:57;;;;;;;1.77;0.60;;;19.00;72.40;;;;;;5006900;28;20791;-71
2022/06/28 07:10:22;;;;;;;1.50;0.50;;;19.10;71.90;;;;;;5024223;28;20068;-71
2022/06/28 07:12:48;;;;;;;1.10;0.47;;;19.30;71.40;;;;;;5022119;28;20227;-72
2022/06/28 07:15:13;;;;;;;0.68;0.55;;;19.40;70.80;;;;;;5034230;28;20033;-72
2022/06/28 07:17:39;;;;;;;1.98;0.50;;;19.50;70.40;;;;;;5024194;28;20179;-71
2022/06/28 07:20:05;;;;;;;1.15;0.70;;;19.60;70.00;;;;;;5027905;28;20132;-72
2022/06/28 07:22:31;;;;;;;2.30;0.60;;;19.70;69.30;;;;;;5031361;28;20114;-72
2022/06/28 07:24:56;;;;;;;0.73;0.50;;;19.90;68.80;;;;;;5007718;28;20790;-71
2022/06/28 07:27:22;;;;;;;2.08;0.40;;;20.00;68.40;;;;;;5036022;28;20021;-72
2022/06/28 07:29:48;;;;;;;1.77;0.60;;;20.10;68.00;;;;;;5032854;28;20060;-72
2022/06/28 07:32:14;;;;;;;0.73;0.52;;;20.30;67.40;;;;;;5050485;28;20129;-72
2022/06/28 07:34:40;;;;;;;0.52;0.40;;;20.40;66.70;;;;;;5026824;28;20147;-71
2022/06/28 07:37:05;;;;;;;3.65;1.02;;;20.60;66.50;;;;;;5020104;28;20032;-71
2022/06/28 07:39:31;;;;;;;3.53;0.40;;;20.70;65.80;;;;;;5016783;28;20055;-71
2022/06/28 07:41:56;;;;;;;2.63;0.30;;;20.90;65.40;;;;;;5002547;28;20040;-71
2022/06/28 07:44:22;;;;;;;1.67;0.40;;;21.00;64.80;;;;;;5008700;28;20038;-71
2022/06/28 07:46:47;;;;;;;0.60;0.50;;;21.10;64.10;;;;;;5013322;28;20040;-71
2022/06/28 07:49:13;;;;;;;0.80;0.40;;;21.20;63.40;;;;;;5043965;28;20091;-71
2022/06/28 07:54:22;;;;;;;0.70;0.50;;;21.40;62.30;;;;;;5029981;28;20044;-71
2022/06/28 07:56:48;;;;;;;0.90;0.43;;;21.60;61.90;;;;;;5037527;28;20037;-71
2022/06/28 07:59:13;;;;;;;0.95;0.40;;;21.70;61.40;;;;;;5039656;28;20718;-72
2022/06/28 08:01:39;;;;;;;0.73;0.40;;;21.80;61.00;;;;;;5031712;28;20433;-71
2022/06/28 08:04:04;;;;;;;1.13;0.40;;;22.00;60.60;;;;;;5042104;28;20485;-71
2022/06/28 08:06:30;;;;;;;0.57;0.32;;;22.10;60.20;;;;;;5022281;28;20042;-72
2022/06/28 08:08:55;;;;;;;0.40;0.40;;;22.30;59.70;;;;;;5055526;28;20116;-71
2022/06/28 08:11:21;;;;;;;1.52;0.30;;;22.50;59.20;;;;;;5029718;28;20111;-71
2022/06/28 08:13:48;;;;;;;1.77;0.47;;;22.60;58.40;;;;;;5039820;28;20126;-73
2022/06/28 08:16:13;;;;;;;0.40;0.30;;;22.70;58.00;;;;;;5037553;28;20127;-72
2022/06/28 08:18:39;;;;;;;1.38;0.43;;;22.90;57.70;;;;;;5032466;28;20666;-73
2022/06/28 08:21:05;;;;;;;2.25;0.40;;;23.10;57.20;;;;;;5039080;28;20532;-72
2022/06/28 08:23:31;;;;;;;0.30;0.30;;;23.20;56.60;;;;;;5030294;28;20462;-72
2022/06/28 08:25:56;;;;;;;1.10;0.22;;;23.50;56.30;;;;;;5016462;28;20044;-74
2022/06/28 08:28:22;;;;;;;0.65;0.30;;;23.60;56.10;;;;;;5019045;28;20036;-73
2022/06/28 08:30:47;;;;;;;0.60;0.32;;;23.70;55.50;;;;;;5039605;28;20045;-72
2022/06/28 08:33:13;;;;;;;0.45;0.32;;;23.90;54.90;;;;;;5041655;28;20029;-72
2022/06/28 08:35:38;;;;;;;1.13;0.30;;;24.00;54.40;;;;;;5039558;28;20480;-73
2022/06/28 08:38:05;;;;;;;0.93;0.30;;;24.20;54.10;;;;;;5043129;28;20068;-72
2022/06/28 08:40:31;;;;;;;0.50;0.40;;;24.40;53.70;;;;;;5035136;28;20044;-73
2022/06/28 08:42:58;;;;;;;0.57;0.40;;;24.60;53.30;;;;;;5036633;28;20419;-73
2022/06/28 08:45:24;;;;;;;2.50;0.40;;;24.70;52.70;;;;;;5040340;28;20033;-72
2022/06/28 08:47:51;;;;;;;2.30;0.30;;;24.90;52.30;;;;;;5018334;28;20045;-74
2022/06/28 08:50:33;;;;;;;0.98;0.32;;;25.10;51.80;;;;;;5038413;28;20037;-73
2022/06/28 08:53:02;;;;;;;0.28;0.28;;;25.20;50.20;;;;;;5045992;28;20029;-74
2022/06/28 08:55:29;;;;;;;0.75;0.30;;;25.40;50.70;;;;;;5035362;28;20032;-74
2022/06/28 08:57:55;;;;;;;2.47;0.40;;;25.50;50.20;;;;;;5041611;28;20041;-74
2022/06/28 09:00:20;;;;;;;1.40;0.50;;;25.70;49.80;;;;;;5029281;28;20490;-75
2022/06/28 09:02:46;;;;;;;1.40;0.32;;;25.80;49.20;;;;;;5031923;28;20024;-75
2022/06/28 09:05:12;;;;;;;0.47;0.30;;;25.90;48.90;;;;;;5040491;28;20067;-73
2022/06/28 09:07:37;;;;;;;2.63;0.50;;;26.00;48.60;;;;;;5026045;28;20037;-74
2022/06/28 09:10:03;;;;;;;1.45;0.20;;;26.20;48.40;;;;;;5039047;28;20028;-74
2022/06/28 09:12:29;;;;;;;0.63;0.35;;;26.30;48.00;;;;;;5017285;28;20044;-73
2022/06/28 09:14:56;;;;;;;1.25;0.47;;;26.40;47.80;;;;;;5009699;28;20037;-73
2022/06/28 09:17:28;;;;;;;1.38;0.30;;;26.70;47.70;;;;;;5032853;28;20439;-73
2022/06/28 09:19:58;;;;;;;0.80;0.35;;;26.80;46.90;;;;;;5032385;28;20037;-73
2022/06/28 09:22:32;;;;;;;0.10;0.10;;;27.00;46.80;;;;;;5022064;28;20037;-72
2022/06/28 09:24:58;;;;;;;0.50;0.40;;;27.10;46.40;;;;;;5050943;28;20041;-72
2022/06/28 09:27:36;;;;;;;1.00;0.30;;;27.20;46.40;;;;;;5038492;28;20120;-73
2022/06/28 09:30:10;;;;;;;1.88;0.30;;;27.30;45.10;;;;;;5033412;28;20044;-74
2022/06/28 09:32:36;;;;;;;0.75;0.35;;;27.40;45.20;;;;;;5017137;28;20385;-73
2022/06/28 09:35:10;;;;;;;0.82;0.40;;;27.60;45.60;;;;;;5034535;28;20032;-74
2022/06/28 09:37:47;;;;;;;2.85;0.32;;;27.80;45.00;;;;;;5010271;28;20029;-74
2022/06/28 09:40:17;;;;;;;1.85;0.75;;;27.90;44.50;;;;;;5017835;28;20050;-73
2022/06/28 09:42:42;;;;;;;0.93;0.40;;;28.00;44.70;;;;;;5049457;28;20421;-73
2022/06/28 09:45:09;;;;;;;1.85;0.38;;;28.20;44.50;;;;;;5026620;28;20047;-73
2022/06/28 09:47:40;;;;;;;2.60;0.40;;;28.30;44.10;;;;;;5039370;28;20065;-74
2022/06/28 09:50:06;;;;;;;0.73;0.20;;;28.40;43.80;;;;;;5024783;28;20028;-74
2022/06/28 09:52:31;;;;;;;1.00;0.70;;;28.60;43.70;;;;;;5014106;28;20120;-72
2022/06/28 09:54:58;;;;;;;0.40;0.40;;;28.80;43.40;;;;;;5019334;28;20041;-73
2022/06/28 09:57:24;;;;;;;2.33;0.55;;;28.90;43.20;;;;;;5014003;28;20583;-73
2022/06/28 09:59:50;;;;;;;1.38;0.85;;;29.00;43.00;;;;;;5026799;28;20041;-73
2022/06/28 10:02:17;;;;;;;1.50;0.63;;;29.20;42.60;;;;;;5012025;28;20070;-74
2022/06/28 10:04:43;;;;;;;2.63;0.65;;;29.30;42.30;;;;;;5013986;28;20036;-73
2022/06/28 10:07:10;;;;;;;1.02;0.30;;;29.40;42.00;;;;;;5025166;28;20037;-73
2022/06/28 10:09:35;;;;;;;1.35;0.47;;;29.50;41.70;;;;;;5024065;28;20104;-73
2022/06/28 10:15:04;;;;;;;1.30;0.50;;;29.70;41.30;;;;;;5039038;28;20095;-74
2022/06/28 10:17:56;;;;;;;0.80;0.30;;;29.90;40.90;;;;;;5011222;28;20672;-75
2022/06/28 10:20:29;;;;;;;0.85;0.28;;;30.00;39.90;;;;;;5040748;28;20055;-73
2022/06/28 10:23:24;;;;;;;2.15;0.60;;;30.20;40.40;;;;;;5024821;28;20406;-74
2022/06/28 10:26:02;;;;;;;1.80;0.40;;;30.40;38.20;;;;;;5028034;28;20639;-74
2022/06/28 10:28:32;;;;;;;0.60;0.20;;;30.50;37.90;;;;;;5011093;28;20045;-73
2022/06/28 10:31:37;;;;;;;0.57;0.40;;;30.60;39.20;;;;;;5031669;28;20602;-75
2022/06/28 10:34:08;;;;;;;0.52;0.35;;;30.80;37.30;;;;;;5035617;28;20111;-74
2022/06/28 10:36:48;;;;;;;1.20;0.40;;;30.90;38.40;;;;;;5036432;28;20040;-74
2022/06/28 10:39:15;;;;;;;1.42;0.35;;;31.10;36.70;;;;;;5034033;28;20033;-73
2022/06/28 10:41:45;;;;;;;1.40;0.47;;;31.30;38.00;;;;;;5032597;28;20044;-75
2022/06/28 10:44:14;;;;;;;3.97;1.25;;;31.50;37.80;;;;;;5041527;28;20101;-74
2022/06/28 10:46:41;;;;;;;1.60;0.50;;;31.60;37.10;;;;;;5035640;28;20095;-73
2022/06/28 10:49:11;;;;;;;2.60;0.40;;;31.80;36.60;;;;;;5030690;28;20091;-73
2022/06/28 10:51:42;;;;;;;2.00;0.52;;;31.90;36.10;;;;;;5044796;28;20040;-73
2022/06/28 10:54:11;;;;;;;0.43;0.30;;;31.90;35.50;;;;;;5028453;28;20048;-74
2022/06/28 10:56:41;;;;;;;1.00;0.40;;;32.00;35.20;;;;;;5033639;28;20452;-74
2022/06/28 10:59:14;;;;;;;0.20;0.20;;;32.10;35.40;;;;;;5038762;28;20041;-74
2022/06/28 11:01:39;;;;;;;1.13;0.50;;;32.30;35.30;;;;;;5013347;28;20804;-74
2022/06/28 11:04:18;;;;;;;0.50;0.20;;;32.50;35.40;;;;;;5057901;28;20452;-73
2022/06/28 11:06:47;;;;;;;1.65;0.45;;;32.80;34.40;;;;;;5035166;28;20048;-74
2022/06/28 11:09:23;;;;;;;0.50;0.30;;;32.90;34.80;;;;;;5019999;28;20029;-74
2022/06/28 11:12:07;;;;;;;3.33;0.40;;;33.10;34.70;;;;;;5051497;28;20313;-73
2022/06/28 11:14:50;;;;;;;0.68;0.40;;;33.20;33.40;;;;;;5036213;28;20050;-73
2022/06/28 11:17:22;;;;;;;1.13;0.40;;;33.40;34.50;;;;;;5008190;28;20040;-74
2022/06/28 11:19:53;;;;;;;1.55;0.45;;;33.60;34.00;;;;;;5049317;28;20036;-73
2022/06/28 11:22:25;;;;;;;0.80;0.32;;;33.60;33.60;;;;;;5004193;28;20124;-75
2022/06/28 11:24:51;;;;;;;2.85;0.40;;;33.70;33.20;;;;;;5031775;28;20043;-73
2022/06/28 11:27:20;;;;;;;1.88;0.40;;;33.80;33.20;;;;;;5007024;28;20021;-74
2022/06/28 11:29:48;;;;;;;0.98;0.40;;;34.00;33.20;;;;;;5024316;28;20037;-74
2022/06/28 11:32:26;;;;;;;2.03;0.20;;;34.20;33.00;;;;;;5024349;28;20169;-74
2022/06/28 11:34:59;;;;;;;1.38;0.63;;;34.20;32.30;;;;;;4999616;28;20174;-74
2022/06/28 11:37:25;;;;;;;0.68;0.45;;;34.30;32.20;;;;;;5016586;28;20028;-73
2022/06/28 11:39:53;;;;;;;2.03;0.40;;;34.40;32.10;;;;;;5010425;28;20565;-73
2022/06/28 11:42:18;;;;;;;1.13;0.40;;;34.50;31.60;;;;;;5013668;28;20576;-74
2022/06/28 11:44:45;;;;;;;5.07;0.50;;;34.40;31.60;;;;;;5017553;28;20124;-73
2022/06/28 11:47:11;;;;;;;0.60;0.30;;;34.30;31.40;;;;;;4996114;28;20040;-74
2022/06/28 11:49:36;;;;;;;1.48;0.30;;;34.30;31.60;;;;;;4987820;28;20422;-74
2022/06/28 11:52:02;;;;;;;1.65;0.40;;;34.50;31.70;;;;;;5021004;28;20037;-74
2022/06/28 11:54:28;;;;;;;3.40;0.45;;;34.70;31.70;;;;;;5015529;28;20249;-73
2022/06/28 11:56:53;;;;;;;0.73;0.28;;;34.90;31.60;;;;;;5020044;28;20037;-74
2022/06/28 11:59:19;;;;;;;0.93;0.20;;;35.10;31.30;;;;;;5031009;28;20043;-74
2022/06/28 12:01:45;;;;;;;2.72;0.50;;;35.20;31.00;;;;;;5006530;28;20081;-74
2022/06/28 12:04:10;;;;;;;0.50;0.43;;;35.30;30.80;;;;;;5023840;28;20114;-74
2022/06/28 12:06:40;;;;;;;2.35;0.50;;;35.30;30.70;;;;;;5031317;28;20568;-74
2022/06/28 12:09:06;;;;;;;0.85;0.50;;;35.40;30.40;;;;;;4994983;28;20033;-75
2022/06/28 12:11:32;;;;;;;0.90;0.50;;;35.40;30.30;;;;;;5036821;28;20544;-74
2022/06/28 12:13:59;;;;;;;0.88;0.30;;;35.40;30.00;;;;;;5018497;28;20708;-73
2022/06/28 12:16:31;;;;;;;0.93;0.30;;;35.30;29.80;;;;;;5037265;28;20044;-74
2022/06/28 12:18:57;;;;;;;0.88;0.50;;;35.40;29.60;;;;;;5041714;28;20037;-74
2022/06/28 12:21:23;;;;;;;1.58;0.40;;;35.40;29.80;;;;;;5016732;28;20072;-73
2022/06/28 12:23:49;;;;;;;0.95;0.38;;;35.60;29.90;;;;;;5036494;28;20199;-74
2022/06/28 12:26:15;;;;;;;0.90;0.40;;;35.80;29.80;;;;;;5029847;28;20029;-74
2022/06/28 12:28:41;;;;;;;4.57;0.70;;;35.80;29.50;;;;;;5034857;28;20033;-74
2022/06/28 12:31:06;;;;;;;1.48;0.45;;;36.00;29.40;;;;;;5037126;28;20051;-74
2022/06/28 12:33:32;;;;;;;1.20;0.45;;;36.10;29.10;;;;;;5033238;28;20550;-74
2022/06/28 12:35:57;;;;;;;1.15;0.40;;;36.20;29.00;;;;;;5034498;28;20669;-74
2022/06/28 12:38:23;;;;;;;0.50;0.35;;;36.30;29.10;;;;;;5030722;28;20107;-75
2022/06/28 12:40:48;;;;;;;1.33;0.45;;;36.40;29.00;;;;;;5013930;28;20064;-74
2022/06/28 12:43:14;;;;;;;1.25;0.43;;;36.40;29.10;;;;;;5039491;28;20040;-74
2022/06/28 12:45:39;;;;;;;2.15;0.30;;;36.40;28.90;;;;;;5021500;28;20041;-74
2022/06/28 12:48:05;;;;;;;0.22;0.20;;;36.30;28.80;;;;;;5025142;28;20116;-74
2022/06/28 12:50:31;;;;;;;1.00;0.32;;;36.00;28.70;;;;;;5022035;28;20473;-73
2022/06/28 12:52:57;;;;;;;0.77;0.30;;;35.90;28.50;;;;;;5018917;28;20410;-75
2022/06/28 12:55:23;;;;;;;1.90;0.50;;;35.70;28.50;;;;;;5016022;28;20538;-73
2022/06/28 12:57:48;;;;;;;2.13;0.50;;;35.70;28.70;;;;;;4994175;28;20041;-74